sensor_id;sensor_type;location;lat;lon;timestamp;temperature;humidity
13245;DHT22;6689;53.400;12.486;2022-08-20T00:01:24;21.50;99.90
13245;DHT22;6689;53.400;12.486;2022-08-20T00:03:55;21.50;99.90
13245;DHT22;6689;53.400;12.486;2022-08-20T00:06:39;21.50;99.90
13245;DHT22;6689;53.400;12.486;2022-08-20T00:09:13;21.50;99.90
13245;DHT22;6689;53.400;12.486;2022-08-20T00:11:48;21.60;99.90
13245;DHT22;6689;53.400;12.486;2022-08-20T00:14:15;21.50;99.90
13245;DHT22;6689;53.400;12.486;2022-08-20T00:16:43;21.50;99.90
13245;DHT22;6689;53.400;12.486;2022-08-20T00:19:24;21.50;99.90
13245;DHT22;6689;53.400;12.486;2022-08-20T00:22:14;21.50;99.90
13245;DHT22;6689;53.400;12.486;2022-08-20T00:24:54;21.50;99.90
13245;DHT22;6689;53.400;12.486;2022-08-20T00:27:35;21.50;99.90
13245;DHT22;6689;53.400;12.486;2022-08-20T00:30:06;21.50;99.90
13245;DHT22;6689;53.400;12.486;2022-08-20T00:32:41;21.50;99.90
13245;DHT22;6689;53.400;12.486;2022-08-20T00:35:10;21.50;99.90
13245;DHT22;6689;53.400;12.486;2022-08-20T00:37:59;21.50;99.90
13245;DHT22;6689;53.400;12.486;2022-08-20T00:40:45;21.50;99.90
13245;DHT22;6689;53.400;12.486;2022-08-20T00:43:33;21.50;99.90
13245;DHT22;6689;53.400;12.486;2022-08-20T00:46:05;21.40;99.90
13245;DHT22;6689;53.400;12.486;2022-08-20T00:48:36;21.40;99.90
13245;DHT22;6689;53.400;12.486;2022-08-20T00:51:07;21.40;99.90
13245;DHT22;6689;53.400;12.486;2022-08-20T00:53:41;21.40;99.90
13245;DHT22;6689;53.400;12.486;2022-08-20T00:56:10;21.40;99.90
13245;DHT22;6689;53.400;12.486;2022-08-20T00:58:53;21.40;99.90
13245;DHT22;6689;53.400;12.486;2022-08-20T01:01:34;21.40;99.90
13245;DHT22;6689;53.400;12.486;2022-08-20T01:04:05;21.30;99.90
13245;DHT22;6689;53.400;12.486;2022-08-20T01:06:40;21.30;99.90
13245;DHT22;6689;53.400;12.486;2022-08-20T01:09:11;21.30;99.90
13245;DHT22;6689;53.400;12.486;2022-08-20T01:11:53;21.20;99.90
13245;DHT22;6689;53.400;12.486;2022-08-20T01:14:20;21.10;99.90
13245;DHT22;6689;53.400;12.486;2022-08-20T01:17:04;21.10;99.90
13245;DHT22;6689;53.400;12.486;2022-08-20T01:19:42;21.20;99.90
13245;DHT22;6689;53.400;12.486;2022-08-20T01:22:14;21.10;99.90
13245;DHT22;6689;53.400;12.486;2022-08-20T01:25:11;21.10;99.90
13245;DHT22;6689;53.400;12.486;2022-08-20T01:27:51;21.10;99.90
13245;DHT22;6689;53.400;12.486;2022-08-20T01:30:33;21.10;99.90
13245;DHT22;6689;53.400;12.486;2022-08-20T01:33:00;21.20;99.90
13245;DHT22;6689;53.400;12.486;2022-08-20T01:35:30;21.20;99.90
13245;DHT22;6689;53.400;12.486;2022-08-20T01:38:01;21.30;99.90
13245;DHT22;6689;53.400;12.486;2022-08-20T01:40:49;21.20;99.90
13245;DHT22;6689;53.400;12.486;2022-08-20T01:43:26;21.20;99.90
13245;DHT22;6689;53.400;12.486;2022-08-20T01:46:08;21.10;99.90
13245;DHT22;6689;53.400;12.486;2022-08-20T01:48:50;21.10;99.90
13245;DHT22;6689;53.400;12.486;2022-08-20T01:51:23;21.20;99.90
13245;DHT22;6689;53.400;12.486;2022-08-20T01:53:53;21.10;99.90
13245;DHT22;6689;53.400;12.486;2022-08-20T01:56:23;21.10;99.90
13245;DHT22;6689;53.400;12.486;2022-08-20T01:59:00;21.10;99.90
13245;DHT22;6689;53.400;12.486;2022-08-20T02:01:33;21.10;99.90
13245;DHT22;6689;53.400;12.486;2022-08-20T02:04:09;21.10;99.90
13245;DHT22;6689;53.400;12.486;2022-08-20T02:06:52;21.10;99.90
13245;DHT22;6689;53.400;12.486;2022-08-20T02:09:20;21.00;99.90
13245;DHT22;6689;53.400;12.486;2022-08-20T02:11:55;21.00;99.90
13245;DHT22;6689;53.400;12.486;2022-08-20T02:18:06;21.00;99.90
13245;DHT22;6689;53.400;12.486;2022-08-20T02:20:35;20.90;99.90
13245;DHT22;6689;53.400;12.486;2022-08-20T02:23:17;20.90;99.90
13245;DHT22;6689;53.400;12.486;2022-08-20T02:25:46;20.90;99.90
13245;DHT22;6689;53.400;12.486;2022-08-20T02:28:21;20.90;99.90
13245;DHT22;6689;53.400;12.486;2022-08-20T02:30:52;20.90;99.90
13245;DHT22;6689;53.400;12.486;2022-08-20T02:33:36;20.90;99.90
13245;DHT22;6689;53.400;12.486;2022-08-20T02:36:18;20.70;99.90
13245;DHT22;6689;53.400;12.486;2022-08-20T02:38:45;20.80;99.90
13245;DHT22;6689;53.400;12.486;2022-08-20T02:41:16;20.80;99.90
13245;DHT22;6689;53.400;12.486;2022-08-20T02:43:46;20.90;99.90
13245;DHT22;6689;53.400;12.486;2022-08-20T02:46:20;20.80;99.90
13245;DHT22;6689;53.400;12.486;2022-08-20T02:48:57;20.90;99.90
13245;DHT22;6689;53.400;12.486;2022-08-20T02:51:26;20.90;99.90
13245;DHT22;6689;53.400;12.486;2022-08-20T02:54:01;20.90;99.90
13245;DHT22;6689;53.400;12.486;2022-08-20T02:56:42;20.90;99.90
13245;DHT22;6689;53.400;12.486;2022-08-20T02:59:24;20.90;99.90
13245;DHT22;6689;53.400;12.486;2022-08-20T03:01:51;21.00;99.90
13245;DHT22;6689;53.400;12.486;2022-08-20T03:10:37;21.00;99.90
13245;DHT22;6689;53.400;12.486;2022-08-20T03:13:07;21.00;99.90
13245;DHT22;6689;53.400;12.486;2022-08-20T03:15:40;20.90;99.90
13245;DHT22;6689;53.400;12.486;2022-08-20T03:18:16;20.90;99.90
13245;DHT22;6689;53.400;12.486;2022-08-20T03:20:57;20.90;99.90
13245;DHT22;6689;53.400;12.486;2022-08-20T03:23:26;20.90;99.90
13245;DHT22;6689;53.400;12.486;2022-08-20T03:26:21;20.90;99.90
13245;DHT22;6689;53.400;12.486;2022-08-20T03:28:51;21.00;99.90
13245;DHT22;6689;53.400;12.486;2022-08-20T03:31:22;20.90;99.90
13245;DHT22;6689;53.400;12.486;2022-08-20T03:33:51;21.00;99.90
13245;DHT22;6689;53.400;12.486;2022-08-20T03:36:32;21.00;99.90
13245;DHT22;6689;53.400;12.486;2022-08-20T03:39:13;21.00;99.90
13245;DHT22;6689;53.400;12.486;2022-08-20T03:42:02;21.00;99.90
13245;DHT22;6689;53.400;12.486;2022-08-20T03:44:32;21.00;99.90
13245;DHT22;6689;53.400;12.486;2022-08-20T03:47:02;21.00;99.90
13245;DHT22;6689;53.400;12.486;2022-08-20T03:49:34;21.00;99.90
13245;DHT22;6689;53.400;12.486;2022-08-20T03:52:02;21.00;99.90
13245;DHT22;6689;53.400;12.486;2022-08-20T03:54:32;21.00;99.90
13245;DHT22;6689;53.400;12.486;2022-08-20T03:57:11;21.00;99.90
13245;DHT22;6689;53.400;12.486;2022-08-20T03:59:52;21.00;99.90
13245;DHT22;6689;53.400;12.486;2022-08-20T04:02:33;20.90;99.90
13245;DHT22;6689;53.400;12.486;2022-08-20T04:05:01;20.90;99.90
13245;DHT22;6689;53.400;12.486;2022-08-20T04:07:42;20.90;99.90
13245;DHT22;6689;53.400;12.486;2022-08-20T04:10:17;20.90;99.90
13245;DHT22;6689;53.400;12.486;2022-08-20T04:13:07;20.90;99.90
13245;DHT22;6689;53.400;12.486;2022-08-20T04:15:48;20.90;99.90
13245;DHT22;6689;53.400;12.486;2022-08-20T04:18:20;20.90;99.90
13245;DHT22;6689;53.400;12.486;2022-08-20T04:20:49;20.90;99.90
13245;DHT22;6689;53.400;12.486;2022-08-20T04:23:16;20.90;99.90
13245;DHT22;6689;53.400;12.486;2022-08-20T04:25:48;20.80;99.90
13245;DHT22;6689;53.400;12.486;2022-08-20T04:28:32;20.80;99.90
13245;DHT22;6689;53.400;12.486;2022-08-20T04:31:13;20.90;99.90
13245;DHT22;6689;53.400;12.486;2022-08-20T04:33:42;20.80;99.90
13245;DHT22;6689;53.400;12.486;2022-08-20T04:36:22;20.80;99.90
13245;DHT22;6689;53.400;12.486;2022-08-20T04:39:04;20.80;99.90
13245;DHT22;6689;53.400;12.486;2022-08-20T04:41:32;20.70;99.90
13245;DHT22;6689;53.400;12.486;2022-08-20T04:44:37;20.70;99.90
13245;DHT22;6689;53.400;12.486;2022-08-20T04:47:18;20.70;99.90
13245;DHT22;6689;53.400;12.486;2022-08-20T04:49:59;20.70;99.90
13245;DHT22;6689;53.400;12.486;2022-08-20T04:52:27;20.80;99.90
13245;DHT22;6689;53.400;12.486;2022-08-20T04:55:09;20.70;99.90
13245;DHT22;6689;53.400;12.486;2022-08-20T04:57:38;20.80;99.90
13245;DHT22;6689;53.400;12.486;2022-08-20T05:00:13;20.80;99.90
13245;DHT22;6689;53.400;12.486;2022-08-20T05:02:54;20.70;99.90
13245;DHT22;6689;53.400;12.486;2022-08-20T05:05:23;20.70;99.90
13245;DHT22;6689;53.400;12.486;2022-08-20T05:07:51;20.80;99.90
13245;DHT22;6689;53.400;12.486;2022-08-20T05:10:22;20.80;99.90
13245;DHT22;6689;53.400;12.486;2022-08-20T05:12:51;20.80;99.90
13245;DHT22;6689;53.400;12.486;2022-08-20T05:15:35;20.90;99.90
13245;DHT22;6689;53.400;12.486;2022-08-20T05:18:04;20.90;99.90
13245;DHT22;6689;53.400;12.486;2022-08-20T05:20:34;20.80;99.90
13245;DHT22;6689;53.400;12.486;2022-08-20T05:23:06;20.80;99.90
13245;DHT22;6689;53.400;12.486;2022-08-20T05:25:34;20.70;99.90
13245;DHT22;6689;53.400;12.486;2022-08-20T05:28:05;20.70;99.90
13245;DHT22;6689;53.400;12.486;2022-08-20T05:30:39;20.80;99.90
13245;DHT22;6689;53.400;12.486;2022-08-20T05:33:09;20.70;99.90
13245;DHT22;6689;53.400;12.486;2022-08-20T05:35:39;20.70;99.90
13245;DHT22;6689;53.400;12.486;2022-08-20T05:38:10;20.80;99.90
13245;DHT22;6689;53.400;12.486;2022-08-20T05:40:37;20.90;99.90
13245;DHT22;6689;53.400;12.486;2022-08-20T05:43:08;20.80;99.90
13245;DHT22;6689;53.400;12.486;2022-08-20T05:45:39;20.90;99.90
13245;DHT22;6689;53.400;12.486;2022-08-20T05:48:10;21.00;99.90
13245;DHT22;6689;53.400;12.486;2022-08-20T05:50:46;21.00;99.90
13245;DHT22;6689;53.400;12.486;2022-08-20T05:53:28;21.00;99.90
13245;DHT22;6689;53.400;12.486;2022-08-20T05:56:09;21.10;99.90
13245;DHT22;6689;53.400;12.486;2022-08-20T05:58:50;21.20;99.90
13245;DHT22;6689;53.400;12.486;2022-08-20T06:04:30;21.10;99.90
13245;DHT22;6689;53.400;12.486;2022-08-20T06:07:12;21.10;99.90
13245;DHT22;6689;53.400;12.486;2022-08-20T06:09:40;21.20;99.90
13245;DHT22;6689;53.400;12.486;2022-08-20T06:12:21;21.10;99.90
13245;DHT22;6689;53.400;12.486;2022-08-20T06:14:49;21.10;99.90
13245;DHT22;6689;53.400;12.486;2022-08-20T06:17:17;21.10;99.90
13245;DHT22;6689;53.400;12.486;2022-08-20T06:19:46;21.30;99.90
13245;DHT22;6689;53.400;12.486;2022-08-20T06:22:28;21.30;99.90
13245;DHT22;6689;53.400;12.486;2022-08-20T06:25:04;21.10;99.90
13245;DHT22;6689;53.400;12.486;2022-08-20T06:27:36;21.30;99.90
13245;DHT22;6689;53.400;12.486;2022-08-20T06:30:18;21.30;99.90
13245;DHT22;6689;53.400;12.486;2022-08-20T06:32:59;21.30;99.90
13245;DHT22;6689;53.400;12.486;2022-08-20T06:35:33;21.40;99.90
13245;DHT22;6689;53.400;12.486;2022-08-20T06:38:14;21.40;99.90
13245;DHT22;6689;53.400;12.486;2022-08-20T06:40:44;21.50;50.50
13245;DHT22;6689;53.400;12.486;2022-08-20T06:43:15;21.60;41.90
13245;DHT22;6689;53.400;12.486;2022-08-20T06:45:43;21.80;45.90
13245;DHT22;6689;53.400;12.486;2022-08-20T06:48:24;21.90;60.10
13245;DHT22;6689;53.400;12.486;2022-08-20T06:51:09;21.90;6.30
13245;DHT22;6689;53.400;12.486;2022-08-20T06:53:38;22.00;20.50
13245;DHT22;6689;53.400;12.486;2022-08-20T06:56:19;21.80;31.40
13245;DHT22;6689;53.400;12.486;2022-08-20T06:58:54;21.80;30.50
13245;DHT22;6689;53.400;12.486;2022-08-20T07:01:24;21.80;14.80
13245;DHT22;6689;53.400;12.486;2022-08-20T07:04:05;21.80;3.40
13245;DHT22;6689;53.400;12.486;2022-08-20T07:06:44;21.80;6.60
13245;DHT22;6689;53.400;12.486;2022-08-20T07:09:16;21.80;1.00
13245;DHT22;6689;53.400;12.486;2022-08-20T07:11:58;21.70;3.60
13245;DHT22;6689;53.400;12.486;2022-08-20T07:14:29;21.80;12.30
13245;DHT22;6689;53.400;12.486;2022-08-20T07:17:01;21.80;1.00
13245;DHT22;6689;53.400;12.486;2022-08-20T07:19:29;21.60;13.00
13245;DHT22;6689;53.400;12.486;2022-08-20T07:22:05;21.60;9.00
13245;DHT22;6689;53.400;12.486;2022-08-20T07:24:39;21.80;1.20
13245;DHT22;6689;53.400;12.486;2022-08-20T07:27:21;21.80;1.00
13245;DHT22;6689;53.400;12.486;2022-08-20T07:29:51;21.80;1.00
13245;DHT22;6689;53.400;12.486;2022-08-20T07:32:35;21.90;1.00
13245;DHT22;6689;53.400;12.486;2022-08-20T07:35:20;21.90;1.00
13245;DHT22;6689;53.400;12.486;2022-08-20T07:37:50;21.90;1.00
13245;DHT22;6689;53.400;12.486;2022-08-20T07:40:24;22.00;1.00
13245;DHT22;6689;53.400;12.486;2022-08-20T07:43:00;22.20;1.00
13245;DHT22;6689;53.400;12.486;2022-08-20T07:45:30;22.20;1.00
13245;DHT22;6689;53.400;12.486;2022-08-20T07:48:12;22.20;1.00
13245;DHT22;6689;53.400;12.486;2022-08-20T07:50:41;22.20;1.00
13245;DHT22;6689;53.400;12.486;2022-08-20T07:56:16;22.30;1.00
13245;DHT22;6689;53.400;12.486;2022-08-20T07:58:59;22.40;1.00
13245;DHT22;6689;53.400;12.486;2022-08-20T08:01:34;22.50;1.00
13245;DHT22;6689;53.400;12.486;2022-08-20T08:04:09;22.50;1.00
13245;DHT22;6689;53.400;12.486;2022-08-20T08:06:44;22.60;1.00
13245;DHT22;6689;53.400;12.486;2022-08-20T08:09:15;22.70;1.00
13245;DHT22;6689;53.400;12.486;2022-08-20T08:12:04;22.70;1.00
13245;DHT22;6689;53.400;12.486;2022-08-20T08:14:37;22.80;1.00
13245;DHT22;6689;53.400;12.486;2022-08-20T08:17:19;22.90;1.00
13245;DHT22;6689;53.400;12.486;2022-08-20T08:19:55;23.00;1.00
13245;DHT22;6689;53.400;12.486;2022-08-20T08:22:24;23.00;1.00
13245;DHT22;6689;53.400;12.486;2022-08-20T08:24:52;23.10;1.00
13245;DHT22;6689;53.400;12.486;2022-08-20T08:27:28;23.10;1.00
13245;DHT22;6689;53.400;12.486;2022-08-20T08:30:10;23.00;1.00
13245;DHT22;6689;53.400;12.486;2022-08-20T08:32:40;23.10;1.00
13245;DHT22;6689;53.400;12.486;2022-08-20T08:35:21;22.90;1.00
13245;DHT22;6689;53.400;12.486;2022-08-20T08:37:50;23.00;1.00
13245;DHT22;6689;53.400;12.486;2022-08-20T08:40:21;23.00;1.00
13245;DHT22;6689;53.400;12.486;2022-08-20T08:43:05;23.00;1.00
13245;DHT22;6689;53.400;12.486;2022-08-20T08:45:39;22.90;1.00
13245;DHT22;6689;53.400;12.486;2022-08-20T08:48:12;22.80;1.00
13245;DHT22;6689;53.400;12.486;2022-08-20T08:50:55;22.80;1.00
13245;DHT22;6689;53.400;12.486;2022-08-20T08:53:27;22.70;1.00
13245;DHT22;6689;53.400;12.486;2022-08-20T08:55:58;22.80;1.00
13245;DHT22;6689;53.400;12.486;2022-08-20T08:58:32;22.80;1.00
13245;DHT22;6689;53.400;12.486;2022-08-20T09:01:03;22.70;1.00
13245;DHT22;6689;53.400;12.486;2022-08-20T09:03:48;22.80;1.00
13245;DHT22;6689;53.400;12.486;2022-08-20T09:06:22;22.90;1.00
13245;DHT22;6689;53.400;12.486;2022-08-20T09:08:54;22.80;1.00
13245;DHT22;6689;53.400;12.486;2022-08-20T09:11:23;22.90;1.00
13245;DHT22;6689;53.400;12.486;2022-08-20T09:13:56;22.90;1.00
13245;DHT22;6689;53.400;12.486;2022-08-20T09:16:26;22.90;1.00
13245;DHT22;6689;53.400;12.486;2022-08-20T09:18:54;23.00;1.00
13245;DHT22;6689;53.400;12.486;2022-08-20T09:21:26;23.00;1.00
13245;DHT22;6689;53.400;12.486;2022-08-20T09:23:55;22.80;1.00
13245;DHT22;6689;53.400;12.486;2022-08-20T09:26:35;23.00;1.00
13245;DHT22;6689;53.400;12.486;2022-08-20T09:29:22;22.70;1.00
13245;DHT22;6689;53.400;12.486;2022-08-20T09:32:05;23.10;1.00
13245;DHT22;6689;53.400;12.486;2022-08-20T09:34:36;23.30;1.00
13245;DHT22;6689;53.400;12.486;2022-08-20T09:37:06;23.50;1.00
13245;DHT22;6689;53.400;12.486;2022-08-20T09:39:38;23.60;1.00
13245;DHT22;6689;53.400;12.486;2022-08-20T09:42:08;23.70;1.00
13245;DHT22;6689;53.400;12.486;2022-08-20T09:44:58;23.90;1.00
13245;DHT22;6689;53.400;12.486;2022-08-20T09:47:26;24.00;1.00
13245;DHT22;6689;53.400;12.486;2022-08-20T09:50:01;24.20;99.90
13245;DHT22;6689;53.400;12.486;2022-08-20T09:52:32;24.20;99.90
13245;DHT22;6689;53.400;12.486;2022-08-20T09:55:06;24.30;99.90
13245;DHT22;6689;53.400;12.486;2022-08-20T09:57:43;24.20;99.90
13245;DHT22;6689;53.400;12.486;2022-08-20T10:00:30;24.10;99.90
13245;DHT22;6689;53.400;12.486;2022-08-20T10:03:00;24.20;99.90
13245;DHT22;6689;53.400;12.486;2022-08-20T10:05:31;24.20;99.90
13245;DHT22;6689;53.400;12.486;2022-08-20T10:08:04;24.20;99.90
13245;DHT22;6689;53.400;12.486;2022-08-20T10:10:45;24.30;99.90
13245;DHT22;6689;53.400;12.486;2022-08-20T10:13:12;24.40;99.90
13245;DHT22;6689;53.400;12.486;2022-08-20T10:18:53;24.40;99.90
13245;DHT22;6689;53.400;12.486;2022-08-20T10:21:21;24.60;99.90
13245;DHT22;6689;53.400;12.486;2022-08-20T10:23:48;24.70;99.90
13245;DHT22;6689;53.400;12.486;2022-08-20T10:26:16;24.60;99.90
13245;DHT22;6689;53.400;12.486;2022-08-20T10:28:51;24.70;99.90
13245;DHT22;6689;53.400;12.486;2022-08-20T10:31:33;24.50;99.90
13245;DHT22;6689;53.400;12.486;2022-08-20T10:34:18;24.60;99.90
13245;DHT22;6689;53.400;12.486;2022-08-20T10:36:53;24.60;99.90
13245;DHT22;6689;53.400;12.486;2022-08-20T10:39:34;24.50;99.90
13245;DHT22;6689;53.400;12.486;2022-08-20T10:42:01;24.60;99.90
13245;DHT22;6689;53.400;12.486;2022-08-20T10:44:32;24.80;99.90
13245;DHT22;6689;53.400;12.486;2022-08-20T10:47:16;24.90;99.90
13245;DHT22;6689;53.400;12.486;2022-08-20T10:49:52;25.00;99.90
13245;DHT22;6689;53.400;12.486;2022-08-20T10:52:21;25.10;99.90
13245;DHT22;6689;53.400;12.486;2022-08-20T10:55:03;25.10;99.90
13245;DHT22;6689;53.400;12.486;2022-08-20T10:57:44;25.00;99.90
13245;DHT22;6689;53.400;12.486;2022-08-20T11:00:17;25.00;99.90
13245;DHT22;6689;53.400;12.486;2022-08-20T11:02:58;24.90;99.90
13245;DHT22;6689;53.400;12.486;2022-08-20T11:05:48;25.00;99.90
13245;DHT22;6689;53.400;12.486;2022-08-20T11:08:28;25.10;99.90
13245;DHT22;6689;53.400;12.486;2022-08-20T11:10:57;25.10;99.90
13245;DHT22;6689;53.400;12.486;2022-08-20T11:13:32;25.30;99.90
13245;DHT22;6689;53.400;12.486;2022-08-20T11:16:13;25.40;99.90
13245;DHT22;6689;53.400;12.486;2022-08-20T11:18:42;25.40;99.90
13245;DHT22;6689;53.400;12.486;2022-08-20T11:21:18;25.30;99.90
13245;DHT22;6689;53.400;12.486;2022-08-20T11:23:59;25.40;99.90
13245;DHT22;6689;53.400;12.486;2022-08-20T11:26:27;25.50;99.90
13245;DHT22;6689;53.400;12.486;2022-08-20T11:28:57;25.80;99.90
13245;DHT22;6689;53.400;12.486;2022-08-20T11:31:27;26.00;99.90
13245;DHT22;6689;53.400;12.486;2022-08-20T11:33:58;26.30;99.90
13245;DHT22;6689;53.400;12.486;2022-08-20T11:36:58;26.40;99.90
13245;DHT22;6689;53.400;12.486;2022-08-20T11:39:33;26.50;99.90
13245;DHT22;6689;53.400;12.486;2022-08-20T11:42:04;26.60;95.40
13245;DHT22;6689;53.400;12.486;2022-08-20T11:44:33;26.70;88.50
13245;DHT22;6689;53.400;12.486;2022-08-20T11:47:20;26.90;63.50
13245;DHT22;6689;53.400;12.486;2022-08-20T11:49:55;27.10;14.90
13245;DHT22;6689;53.400;12.486;2022-08-20T11:52:23;27.10;12.20
13245;DHT22;6689;53.400;12.486;2022-08-20T11:54:53;27.10;32.50
13245;DHT22;6689;53.400;12.486;2022-08-20T11:57:25;27.10;47.50
13245;DHT22;6689;53.400;12.486;2022-08-20T11:59:55;27.00;1.00
13245;DHT22;6689;53.400;12.486;2022-08-20T12:02:24;26.90;7.80
13245;DHT22;6689;53.400;12.486;2022-08-20T12:04:53;26.70;15.80
13245;DHT22;6689;53.400;12.486;2022-08-20T12:07:27;26.50;5.70
13245;DHT22;6689;53.400;12.486;2022-08-20T12:09:54;26.50;36.90
13245;DHT22;6689;53.400;12.486;2022-08-20T12:12:31;26.40;24.00
13245;DHT22;6689;53.400;12.486;2022-08-20T12:15:08;26.30;39.10
13245;DHT22;6689;53.400;12.486;2022-08-20T12:17:49;26.30;19.60
13245;DHT22;6689;53.400;12.486;2022-08-20T12:20:30;26.10;54.00
13245;DHT22;6689;53.400;12.486;2022-08-20T12:26:28;25.80;23.80
13245;DHT22;6689;53.400;12.486;2022-08-20T12:28:59;25.80;55.50
13245;DHT22;6689;53.400;12.486;2022-08-20T12:31:28;25.70;87.90
13245;DHT22;6689;53.400;12.486;2022-08-20T12:33:59;25.70;54.10
13245;DHT22;6689;53.400;12.486;2022-08-20T12:36:39;25.60;69.40
13245;DHT22;6689;53.400;12.486;2022-08-20T12:39:20;25.50;99.90
13245;DHT22;6689;53.400;12.486;2022-08-20T12:41:53;25.60;93.00
13245;DHT22;6689;53.400;12.486;2022-08-20T12:44:23;25.60;99.90
13245;DHT22;6689;53.400;12.486;2022-08-20T12:46:51;25.50;99.90
13245;DHT22;6689;53.400;12.486;2022-08-20T12:49:24;25.60;99.90
13245;DHT22;6689;53.400;12.486;2022-08-20T12:52:04;25.70;94.00
13245;DHT22;6689;53.400;12.486;2022-08-20T12:54:33;25.80;99.90
13245;DHT22;6689;53.400;12.486;2022-08-20T12:57:24;25.80;95.90
13245;DHT22;6689;53.400;12.486;2022-08-20T13:00:03;25.80;56.40
13245;DHT22;6689;53.400;12.486;2022-08-20T13:02:33;25.90;99.90
13245;DHT22;6689;53.400;12.486;2022-08-20T13:05:15;25.90;45.40
13245;DHT22;6689;53.400;12.486;2022-08-20T13:07:44;25.90;31.90
13245;DHT22;6689;53.400;12.486;2022-08-20T13:10:27;25.80;30.90
13245;DHT22;6689;53.400;12.486;2022-08-20T13:13:07;25.80;18.30
13245;DHT22;6689;53.400;12.486;2022-08-20T13:15:34;25.60;18.00
13245;DHT22;6689;53.400;12.486;2022-08-20T13:18:15;25.70;37.20
13245;DHT22;6689;53.400;12.486;2022-08-20T13:20:57;25.60;18.30
13245;DHT22;6689;53.400;12.486;2022-08-20T13:23:24;25.60;35.70
13245;DHT22;6689;53.400;12.486;2022-08-20T13:25:52;25.60;32.50
13245;DHT22;6689;53.400;12.486;2022-08-20T13:31:29;25.60;1.00
13245;DHT22;6689;53.400;12.486;2022-08-20T13:34:10;25.80;5.70
13245;DHT22;6689;53.400;12.486;2022-08-20T13:36:38;25.80;27.60
13245;DHT22;6689;53.400;12.486;2022-08-20T13:39:14;25.90;31.60
13245;DHT22;6689;53.400;12.486;2022-08-20T13:41:45;25.90;29.00
13245;DHT22;6689;53.400;12.486;2022-08-20T13:44:19;25.90;18.50
13245;DHT22;6689;53.400;12.486;2022-08-20T13:46:52;26.00;11.80
13245;DHT22;6689;53.400;12.486;2022-08-20T13:49:22;26.00;1.00
13245;DHT22;6689;53.400;12.486;2022-08-20T13:51:49;26.00;7.50
13245;DHT22;6689;53.400;12.486;2022-08-20T13:54:30;26.00;1.00
13245;DHT22;6689;53.400;12.486;2022-08-20T13:57:13;26.00;1.00
13245;DHT22;6689;53.400;12.486;2022-08-20T13:59:43;25.90;1.00
13245;DHT22;6689;53.400;12.486;2022-08-20T14:02:22;26.10;1.00
13245;DHT22;6689;53.400;12.486;2022-08-20T14:04:50;26.10;1.00
13245;DHT22;6689;53.400;12.486;2022-08-20T14:07:21;26.10;1.00
13245;DHT22;6689;53.400;12.486;2022-08-20T14:09:51;26.20;1.00
13245;DHT22;6689;53.400;12.486;2022-08-20T14:12:20;26.10;1.00
13245;DHT22;6689;53.400;12.486;2022-08-20T14:15:01;26.10;1.00
13245;DHT22;6689;53.400;12.486;2022-08-20T14:17:51;26.00;1.00
13245;DHT22;6689;53.400;12.486;2022-08-20T14:20:22;26.00;1.00
13245;DHT22;6689;53.400;12.486;2022-08-20T14:22:50;25.80;1.00
13245;DHT22;6689;53.400;12.486;2022-08-20T14:25:31;25.80;1.00
13245;DHT22;6689;53.400;12.486;2022-08-20T14:28:08;25.80;1.00
13245;DHT22;6689;53.400;12.486;2022-08-20T14:30:40;25.80;1.00
13245;DHT22;6689;53.400;12.486;2022-08-20T14:33:27;25.70;1.00
13245;DHT22;6689;53.400;12.486;2022-08-20T14:35:55;25.80;1.00
13245;DHT22;6689;53.400;12.486;2022-08-20T14:38:24;25.80;1.00
13245;DHT22;6689;53.400;12.486;2022-08-20T14:40:55;25.70;1.00
13245;DHT22;6689;53.400;12.486;2022-08-20T14:43:36;25.70;1.00
13245;DHT22;6689;53.400;12.486;2022-08-20T14:46:05;25.60;1.00
13245;DHT22;6689;53.400;12.486;2022-08-20T14:48:54;25.60;1.00
13245;DHT22;6689;53.400;12.486;2022-08-20T14:51:21;25.70;1.00
13245;DHT22;6689;53.400;12.486;2022-08-20T14:53:52;25.60;1.00
13245;DHT22;6689;53.400;12.486;2022-08-20T14:56:20;25.60;1.00
13245;DHT22;6689;53.400;12.486;2022-08-20T14:59:00;25.50;1.00
13245;DHT22;6689;53.400;12.486;2022-08-20T15:01:41;25.50;1.00
13245;DHT22;6689;53.400;12.486;2022-08-20T15:04:25;25.60;1.00
13245;DHT22;6689;53.400;12.486;2022-08-20T15:07:01;25.60;1.00
13245;DHT22;6689;53.400;12.486;2022-08-20T15:09:38;25.50;1.00
13245;DHT22;6689;53.400;12.486;2022-08-20T15:12:06;25.60;1.00
13245;DHT22;6689;53.400;12.486;2022-08-20T15:14:42;25.60;1.00
13245;DHT22;6689;53.400;12.486;2022-08-20T15:17:11;25.60;1.00
13245;DHT22;6689;53.400;12.486;2022-08-20T15:19:54;25.60;1.00
13245;DHT22;6689;53.400;12.486;2022-08-20T15:22:33;25.60;1.00
13245;DHT22;6689;53.400;12.486;2022-08-20T15:25:00;25.60;1.00
13245;DHT22;6689;53.400;12.486;2022-08-20T15:27:29;25.60;1.00
13245;DHT22;6689;53.400;12.486;2022-08-20T15:30:35;25.70;1.00
13245;DHT22;6689;53.400;12.486;2022-08-20T15:33:02;25.60;1.00
13245;DHT22;6689;53.400;12.486;2022-08-20T15:35:31;25.50;1.00
13245;DHT22;6689;53.400;12.486;2022-08-20T15:38:01;25.50;1.00
13245;DHT22;6689;53.400;12.486;2022-08-20T15:40:30;25.50;1.00
13245;DHT22;6689;53.400;12.486;2022-08-20T15:42:59;25.50;1.00
13245;DHT22;6689;53.400;12.486;2022-08-20T15:45:27;25.50;1.00
13245;DHT22;6689;53.400;12.486;2022-08-20T15:48:02;25.50;1.00
13245;DHT22;6689;53.400;12.486;2022-08-20T15:50:48;25.50;1.00
13245;DHT22;6689;53.400;12.486;2022-08-20T15:53:20;25.50;1.00
13245;DHT22;6689;53.400;12.486;2022-08-20T15:55:57;25.40;1.00
13245;DHT22;6689;53.400;12.486;2022-08-20T15:58:36;25.50;1.00
13245;DHT22;6689;53.400;12.486;2022-08-20T16:01:12;25.40;1.00
13245;DHT22;6689;53.400;12.486;2022-08-20T16:04:15;25.40;1.00
13245;DHT22;6689;53.400;12.486;2022-08-20T16:06:49;25.30;1.00
13245;DHT22;6689;53.400;12.486;2022-08-20T16:09:30;25.00;1.00
13245;DHT22;6689;53.400;12.486;2022-08-20T16:12:08;25.00;1.00
13245;DHT22;6689;53.400;12.486;2022-08-20T16:14:44;24.70;1.00
13245;DHT22;6689;53.400;12.486;2022-08-20T16:17:16;24.60;1.00
13245;DHT22;6689;53.400;12.486;2022-08-20T16:19:55;24.50;1.00
13245;DHT22;6689;53.400;12.486;2022-08-20T16:22:26;24.40;1.00
13245;DHT22;6689;53.400;12.486;2022-08-20T16:24:58;24.40;1.00
13245;DHT22;6689;53.400;12.486;2022-08-20T16:27:35;24.40;1.00
13245;DHT22;6689;53.400;12.486;2022-08-20T16:30:18;24.30;1.00
13245;DHT22;6689;53.400;12.486;2022-08-20T16:32:52;24.30;1.00
13245;DHT22;6689;53.400;12.486;2022-08-20T16:35:27;24.30;1.00
13245;DHT22;6689;53.400;12.486;2022-08-20T16:38:06;24.40;1.00
13245;DHT22;6689;53.400;12.486;2022-08-20T16:40:43;24.30;1.00
13245;DHT22;6689;53.400;12.486;2022-08-20T16:43:17;24.40;6.10
13245;DHT22;6689;53.400;12.486;2022-08-20T16:45:48;24.40;3.50
13245;DHT22;6689;53.400;12.486;2022-08-20T16:48:20;24.40;31.10
13245;DHT22;6689;53.400;12.486;2022-08-20T16:50:56;24.40;1.00
13245;DHT22;6689;53.400;12.486;2022-08-20T16:53:28;24.40;17.20